Time;durP1;ratioP1;P1;durP2;ratioP2;P2;SDS_P1;SDS_P2;PMS_P1;PMS_P2;Temp;Humidity;BMP_temperature;BMP_pressure;BME280_temperature;BME280_humidity;BME280_pressure;Samples;Min_cycle;Max_cycle;Signal;HPM_P1;HPM_P2
2022/03/17 00:00:09;;;;;;;37.70;26.40;;;6.90;99.90;;;;;;5051662;28;20056;-66
2022/03/17 00:02:37;;;;;;;40.70;26.90;;;6.90;99.90;;;;;;5064899;28;20088;-67
2022/03/17 00:05:08;;;;;;;42.58;26.98;;;6.90;99.90;;;;;;5051613;28;20055;-67
2022/03/17 00:07:39;;;;;;;39.10;27.85;;;6.90;99.90;;;;;;5063822;28;20055;-66
2022/03/17 00:10:10;;;;;;;38.97;26.43;;;6.90;99.90;;;;;;5070809;28;20037;-67
2022/03/17 00:12:37;;;;;;;40.20;27.08;;;6.80;99.90;;;;;;5064830;28;20283;-66
2022/03/17 00:15:05;;;;;;;38.50;27.10;;;6.80;99.90;;;;;;5056180;28;20330;-66
2022/03/17 00:17:32;;;;;;;39.67;27.73;;;6.90;99.90;;;;;;5050208;28;20071;-66
2022/03/17 00:20:00;;;;;;;37.53;27.17;;;6.90;99.90;;;;;;5052864;28;20044;-66
2022/03/17 00:22:27;;;;;;;40.63;26.92;;;6.90;99.90;;;;;;5051835;28;20045;-67
2022/03/17 00:24:55;;;;;;;37.53;26.00;;;6.90;99.90;;;;;;5051651;28;20041;-67
2022/03/17 00:27:22;;;;;;;40.60;26.77;;;6.90;99.90;;;;;;5051290;28;20076;-68
2022/03/17 00:29:50;;;;;;;39.88;27.08;;;6.90;99.90;;;;;;5040351;28;20091;-68
2022/03/17 00:32:18;;;;;;;43.63;30.02;;;6.90;99.90;;;;;;5045759;28;20037;-68
2022/03/17 00:37:46;;;;;;;41.95;28.95;;;6.90;99.90;;;;;;5039445;28;20076;-68
2022/03/17 00:40:13;;;;;;;40.88;27.17;;;6.90;99.90;;;;;;5031974;28;20143;-67
2022/03/17 00:42:40;;;;;;;39.15;27.70;;;6.90;99.90;;;;;;5014573;28;20053;-68
2022/03/17 00:45:09;;;;;;;43.75;28.52;;;6.90;99.90;;;;;;5028627;28;20154;-67
2022/03/17 00:47:40;;;;;;;36.47;25.73;;;6.90;99.90;;;;;;5029078;28;20389;-67
2022/03/17 00:50:10;;;;;;;38.92;27.77;;;6.90;99.90;;;;;;5047870;28;20536;-69
2022/03/17 00:52:37;;;;;;;44.03;28.73;;;7.00;99.90;;;;;;5047095;28;20052;-68
2022/03/17 00:55:06;;;;;;;39.95;26.67;;;6.90;99.90;;;;;;5031426;28;20207;-68
2022/03/17 00:57:36;;;;;;;37.80;26.70;;;6.90;99.90;;;;;;5034118;28;20063;-67
2022/03/17 01:00:05;;;;;;;43.50;27.77;;;7.00;99.90;;;;;;5016514;28;20049;-68
2022/03/17 01:02:33;;;;;;;37.55;27.30;;;6.90;99.90;;;;;;5029369;28;20041;-68
2022/03/17 01:05:01;;;;;;;44.05;28.98;;;6.90;99.90;;;;;;5029883;28;20061;-68
2022/03/17 01:07:28;;;;;;;42.83;29.33;;;7.00;99.90;;;;;;5029802;28;20520;-68
2022/03/17 01:09:55;;;;;;;40.53;27.15;;;7.00;99.90;;;;;;5041283;28;20140;-67
2022/03/17 01:12:23;;;;;;;40.75;27.58;;;6.90;99.90;;;;;;5035205;28;20051;-67
2022/03/17 01:14:50;;;;;;;43.25;28.08;;;6.90;99.90;;;;;;5060522;28;20129;-67
2022/03/17 01:17:17;;;;;;;44.03;28.15;;;7.00;99.90;;;;;;5068383;28;20056;-67
2022/03/17 01:19:45;;;;;;;41.25;28.52;;;6.90;99.90;;;;;;5059704;28;20107;-67
2022/03/17 01:22:13;;;;;;;39.58;27.88;;;7.00;99.90;;;;;;5050927;28;20071;-67
2022/03/17 01:24:42;;;;;;;38.22;27.02;;;6.90;99.90;;;;;;5052057;28;20045;-67
2022/03/17 01:27:10;;;;;;;37.05;26.27;;;6.90;99.90;;;;;;5062756;28;20127;-67
2022/03/17 01:29:43;;;;;;;42.80;29.80;;;6.90;99.90;;;;;;5042306;28;20033;-66
2022/03/17 01:32:10;;;;;;;44.72;29.05;;;6.90;99.90;;;;;;5044919;28;20342;-67
2022/03/17 01:34:37;;;;;;;43.95;30.02;;;6.90;99.90;;;;;;5029732;28;20037;-67
2022/03/17 01:37:05;;;;;;;45.38;29.38;;;6.90;99.90;;;;;;5043853;28;20563;-67
2022/03/17 01:39:32;;;;;;;45.08;28.77;;;6.90;99.90;;;;;;5053270;28;20072;-67
2022/03/17 01:42:04;;;;;;;40.53;26.95;;;6.90;99.90;;;;;;5059450;28;20049;-66
2022/03/17 01:44:32;;;;;;;39.10;28.50;;;6.90;99.90;;;;;;5064712;28;20515;-67
2022/03/17 01:49:47;;;;;;;44.70;29.92;;;6.80;99.90;;;;;;5054882;28;20073;-68
2022/03/17 01:52:14;;;;;;;46.05;29.20;;;6.80;99.90;;;;;;5058494;28;20492;-68
2022/03/17 01:54:43;;;;;;;41.33;28.42;;;6.80;99.90;;;;;;5050818;28;20041;-67
2022/03/17 01:57:11;;;;;;;42.05;28.75;;;6.80;99.90;;;;;;5050926;28;20036;-67
2022/03/17 01:59:40;;;;;;;39.33;26.83;;;6.80;99.90;;;;;;5047669;28;20400;-67
2022/03/17 02:02:09;;;;;;;40.70;27.20;;;6.80;99.90;;;;;;5050232;28;20415;-67
2022/03/17 02:04:37;;;;;;;41.22;28.73;;;6.80;99.90;;;;;;5051156;28;20076;-67
2022/03/17 02:07:05;;;;;;;40.03;27.88;;;6.80;99.90;;;;;;5050672;28;20566;-67
2022/03/17 02:09:36;;;;;;;38.47;26.85;;;6.80;99.90;;;;;;5050330;28;20045;-67
2022/03/17 02:14:58;;;;;;;41.63;28.05;;;6.80;99.90;;;;;;5058792;28;20472;-67
2022/03/17 02:17:30;;;;;;;39.08;27.30;;;6.80;99.90;;;;;;5048392;28;20522;-67
2022/03/17 02:20:02;;;;;;;;;;;6.80;99.90;;;;;;5060442;28;20063;-67
2022/03/17 02:22:29;;;;;;;38.43;27.27;;;6.80;99.90;;;;;;5049420;28;19931;-67
2022/03/17 02:27:46;;;;;;;38.13;26.75;;;6.80;99.90;;;;;;5048182;28;20554;-67
2022/03/17 02:30:17;;;;;;;39.10;27.23;;;6.80;99.90;;;;;;5049090;28;20526;-67
2022/03/17 02:32:45;;;;;;;39.15;27.08;;;6.80;99.90;;;;;;5043731;28;20045;-68
2022/03/17 02:35:19;;;;;;;36.70;26.33;;;6.80;99.90;;;;;;5039812;28;20041;-67
2022/03/17 02:37:47;;;;;;;39.13;26.10;;;6.80;99.90;;;;;;5049096;28;20040;-67
2022/03/17 02:40:15;;;;;;;37.67;26.58;;;6.80;99.90;;;;;;5049290;28;20053;-68
2022/03/17 02:42:43;;;;;;;34.17;24.45;;;6.80;99.90;;;;;;5047393;28;20060;-68
2022/03/17 02:45:11;;;;;;;39.35;27.65;;;6.80;99.90;;;;;;5058235;28;20041;-66
2022/03/17 02:47:43;;;;;;;36.03;25.80;;;6.80;99.90;;;;;;5053452;28;20133;-67
2022/03/17 02:50:11;;;;;;;38.78;26.45;;;6.80;99.90;;;;;;5040041;28;20495;-66
2022/03/17 02:52:40;;;;;;;36.50;25.70;;;6.70;99.90;;;;;;5036082;28;20554;-67
2022/03/17 02:55:09;;;;;;;40.05;27.95;;;6.80;99.90;;;;;;5046669;28;20045;-68
2022/03/17 02:57:38;;;;;;;41.88;27.83;;;6.80;99.90;;;;;;5051626;28;20068;-67
2022/03/17 03:00:07;;;;;;;38.63;26.13;;;6.80;99.90;;;;;;5053216;28;20463;-68
2022/03/17 03:02:35;;;;;;;38.03;26.02;;;6.80;99.90;;;;;;5040044;28;20836;-67
2022/03/17 03:05:04;;;;;;;37.88;26.65;;;6.70;99.90;;;;;;5047839;28;20053;-67
2022/03/17 03:07:32;;;;;;;38.65;26.77;;;6.70;99.90;;;;;;5048007;28;20085;-68
2022/03/17 03:09:59;;;;;;;38.95;26.85;;;6.70;99.90;;;;;;5047735;28;20049;-68
2022/03/17 03:12:27;;;;;;;34.33;24.92;;;6.70;99.90;;;;;;5046628;28;20076;-67
2022/03/17 03:14:54;;;;;;;40.33;27.50;;;6.70;99.90;;;;;;5048879;28;20239;-68
2022/03/17 03:17:21;;;;;;;38.63;26.67;;;6.70;99.90;;;;;;5046710;28;20515;-68
2022/03/17 03:19:49;;;;;;;38.15;26.88;;;6.70;99.90;;;;;;5049065;28;20547;-68
2022/03/17 03:22:17;;;;;;;37.88;27.58;;;6.70;99.90;;;;;;5047273;28;20049;-68
2022/03/17 03:24:46;;;;;;;37.00;26.52;;;6.70;99.90;;;;;;5048605;28;20041;-67
2022/03/17 03:27:14;;;;;;;39.47;26.88;;;6.70;99.90;;;;;;5047675;28;20030;-67
2022/03/17 03:29:43;;;;;;;38.30;27.13;;;6.70;99.90;;;;;;5047014;28;20039;-68
2022/03/17 03:32:11;;;;;;;34.72;24.90;;;6.70;99.90;;;;;;5045435;28;20049;-67
2022/03/17 03:34:41;;;;;;;37.92;27.05;;;6.70;99.90;;;;;;5047647;28;20219;-67
2022/03/17 03:37:23;;;;;;;38.38;26.98;;;6.70;99.90;;;;;;5046317;28;20143;-67
2022/03/17 03:39:52;;;;;;;;;;;6.70;99.90;;;;;;5035708;28;20060;-66
2022/03/17 03:42:20;;;;;;;40.92;27.90;;;6.70;99.90;;;;;;5047779;28;20422;-68
2022/03/17 03:44:48;;;;;;;41.47;28.10;;;6.70;99.90;;;;;;5062804;28;20103;-68
2022/03/17 03:47:16;;;;;;;41.22;27.67;;;6.70;99.90;;;;;;5046124;28;20167;-68
2022/03/17 03:49:44;;;;;;;41.00;28.58;;;6.70;99.90;;;;;;5047527;28;20392;-67
2022/03/17 03:52:13;;;;;;;39.65;27.92;;;6.70;99.90;;;;;;5050622;28;20040;-68
2022/03/17 03:54:41;;;;;;;42.10;26.80;;;6.80;99.90;;;;;;5054037;28;20494;-68
2022/03/17 03:57:09;;;;;;;41.80;27.80;;;6.80;99.90;;;;;;5057394;28;20514;-68
2022/03/17 03:59:38;;;;;;;43.33;28.35;;;6.80;99.90;;;;;;5058089;28;20079;-68
2022/03/17 04:02:08;;;;;;;42.17;28.42;;;6.80;99.90;;;;;;5051780;28;20533;-67
2022/03/17 04:04:39;;;;;;;43.03;28.95;;;6.80;99.90;;;;;;5050682;28;20492;-67
2022/03/17 04:07:09;;;;;;;41.35;28.80;;;6.80;99.90;;;;;;5054539;28;20072;-67
2022/03/17 04:09:39;;;;;;;42.20;27.75;;;6.90;99.90;;;;;;5050551;28;20048;-67
2022/03/17 04:12:12;;;;;;;39.78;28.20;;;6.90;99.90;;;;;;5048057;28;20381;-67
2022/03/17 04:14:40;;;;;;;40.13;28.20;;;6.90;99.90;;;;;;5040908;28;20450;-67
2022/03/17 04:17:13;;;;;;;38.28;26.73;;;6.90;99.90;;;;;;5051262;28;20117;-68
2022/03/17 04:19:40;;;;;;;41.17;29.02;;;6.90;99.90;;;;;;5052371;28;20507;-68
2022/03/17 04:22:08;;;;;;;41.95;29.08;;;6.90;99.90;;;;;;5045249;28;20144;-68
2022/03/17 04:24:37;;;;;;;41.10;28.23;;;6.90;99.90;;;;;;5055642;28;20517;-68
2022/03/17 04:27:05;;;;;;;40.13;28.10;;;6.90;99.90;;;;;;5053553;28;20080;-68
2022/03/17 04:29:32;;;;;;;40.60;28.15;;;6.90;99.90;;;;;;5021708;28;20049;-67
2022/03/17 04:31:59;;;;;;;39.72;28.67;;;7.00;99.90;;;;;;5053559;28;20052;-68
2022/03/17 04:34:27;;;;;;;38.70;26.50;;;7.00;99.90;;;;;;5053411;28;20059;-67
2022/03/17 04:36:54;;;;;;;41.33;28.05;;;7.00;99.90;;;;;;5054568;28;20048;-68
2022/03/17 04:39:21;;;;;;;42.60;28.60;;;7.00;99.90;;;;;;5052998;28;20041;-68
2022/03/17 04:41:48;;;;;;;38.53;26.95;;;7.00;99.90;;;;;;5051516;28;20464;-68
2022/03/17 04:44:16;;;;;;;40.90;28.17;;;7.00;99.90;;;;;;5051176;28;20041;-68
2022/03/17 04:46:43;;;;;;;40.45;28.42;;;7.00;99.90;;;;;;5042223;28;20048;-67
2022/03/17 04:49:10;;;;;;;43.17;28.92;;;7.00;99.90;;;;;;5049148;28;20049;-67
2022/03/17 04:51:38;;;;;;;42.63;29.27;;;7.00;99.90;;;;;;5055219;28;20044;-68
2022/03/17 04:54:06;;;;;;;40.25;27.77;;;7.00;99.90;;;;;;5069356;28;20056;-68
2022/03/17 04:56:33;;;;;;;41.90;29.38;;;7.00;99.90;;;;;;5057008;28;20407;-68
2022/03/17 04:59:01;;;;;;;41.67;29.30;;;7.00;99.90;;;;;;5057755;28;20064;-68
2022/03/17 05:01:28;;;;;;;39.92;27.15;;;7.00;99.90;;;;;;5047596;28;20329;-68
2022/03/17 05:03:55;;;;;;;40.42;28.45;;;7.10;99.90;;;;;;5049889;28;20538;-68
2022/03/17 05:06:23;;;;;;;46.08;30.70;;;7.10;99.90;;;;;;5038103;28;20056;-68
2022/03/17 05:08:50;;;;;;;47.25;32.10;;;7.10;99.90;;;;;;5052944;28;20379;-68
2022/03/17 05:11:19;;;;;;;45.33;31.45;;;7.10;99.90;;;;;;5059440;28;20065;-68
2022/03/17 05:13:48;;;;;;;44.20;31.13;;;7.10;99.90;;;;;;5043812;28;20041;-68
2022/03/17 05:16:15;;;;;;;46.20;31.20;;;7.20;99.90;;;;;;5061230;28;20076;-68
2022/03/17 05:18:42;;;;;;;43.40;30.60;;;7.20;99.90;;;;;;5050530;28;20049;-68
2022/03/17 05:21:10;;;;;;;48.38;33.05;;;7.20;99.90;;;;;;5050650;28;20052;-68
2022/03/17 05:23:38;;;;;;;44.60;31.35;;;7.20;99.90;;;;;;5058741;28;20051;-68
2022/03/17 05:26:08;;;;;;;45.97;30.15;;;7.30;99.90;;;;;;5037825;28;20052;-67
2022/03/17 05:28:35;;;;;;;43.00;29.85;;;7.30;99.90;;;;;;5049148;28;20041;-68
2022/03/17 05:31:03;;;;;;;43.15;31.13;;;7.20;99.90;;;;;;5053543;28;20040;-68
2022/03/17 05:33:31;;;;;;;42.80;29.98;;;7.20;99.90;;;;;;5069176;28;20271;-67
2022/03/17 05:35:58;;;;;;;43.30;29.58;;;7.30;99.90;;;;;;5055771;28;20583;-67
2022/03/17 05:38:25;;;;;;;48.00;32.65;;;7.20;99.90;;;;;;5048905;28;20049;-67
2022/03/17 05:40:52;;;;;;;40.67;29.77;;;7.30;99.90;;;;;;5056327;28;20052;-68
2022/03/17 05:43:20;;;;;;;43.85;29.80;;;7.30;99.90;;;;;;5057741;28;20045;-68
2022/03/17 05:45:47;;;;;;;47.13;30.80;;;7.20;99.90;;;;;;5062280;28;20148;-68
2022/03/17 05:48:15;;;;;;;42.08;29.05;;;7.20;99.90;;;;;;5056868;28;20040;-67
2022/03/17 05:50:45;;;;;;;41.17;28.58;;;7.20;99.90;;;;;;5054551;28;20055;-67
2022/03/17 05:53:12;;;;;;;42.60;28.98;;;7.20;99.90;;;;;;5050088;28;20044;-67
2022/03/17 05:55:39;;;;;;;43.08;29.15;;;7.20;99.90;;;;;;5063810;28;20403;-66
2022/03/17 05:58:08;;;;;;;45.53;30.98;;;7.10;99.90;;;;;;5067225;28;20056;-67
2022/03/17 06:00:35;;;;;;;42.17;28.85;;;7.10;99.90;;;;;;5033979;28;20118;-68
2022/03/17 06:03:04;;;;;;;43.58;29.90;;;7.10;99.90;;;;;;5042739;28;20060;-67
2022/03/17 06:05:31;;;;;;;42.25;30.35;;;7.10;99.90;;;;;;5045487;28;20128;-68
2022/03/17 06:08:02;;;;;;;46.88;31.65;;;7.10;99.90;;;;;;5045137;28;20056;-68
2022/03/17 06:10:34;;;;;;;43.20;30.05;;;7.00;99.90;;;;;;5061216;28;20373;-68
2022/03/17 06:13:06;;;;;;;46.88;31.85;;;7.10;99.90;;;;;;5060517;28;20040;-67
2022/03/17 06:15:36;;;;;;;42.97;30.33;;;7.10;99.90;;;;;;5044557;28;20033;-68
2022/03/17 06:18:05;;;;;;;41.58;28.88;;;7.10;99.90;;;;;;5049753;28;20056;-68
2022/03/17 06:20:35;;;;;;;44.17;30.52;;;7.10;99.90;;;;;;5044343;28;20115;-68
2022/03/17 06:23:04;;;;;;;51.22;32.72;;;7.20;99.90;;;;;;5048010;28;20055;-68
2022/03/17 06:25:35;;;;;;;49.67;31.63;;;7.20;99.90;;;;;;5052293;28;20416;-68
2022/03/17 06:28:07;;;;;;;43.53;30.50;;;7.30;99.90;;;;;;5049168;28;20462;-68
2022/03/17 06:30:35;;;;;;;42.08;28.92;;;7.30;99.90;;;;;;5051350;28;20047;-68
2022/03/17 06:33:07;;;;;;;45.28;31.05;;;7.40;99.90;;;;;;5061235;28;20468;-69
2022/03/17 06:35:35;;;;;;;43.70;29.85;;;7.40;99.90;;;;;;5065132;28;20059;-68
2022/03/17 06:38:05;;;;;;;45.05;29.33;;;7.40;99.90;;;;;;5044507;28;20037;-68
2022/03/17 06:40:33;;;;;;;41.60;28.75;;;7.50;99.90;;;;;;5049908;28;20041;-68
2022/03/17 06:43:01;;;;;;;47.17;30.65;;;7.50;99.90;;;;;;5049066;28;20041;-68
2022/03/17 06:45:29;;;;;;;45.20;30.30;;;7.60;99.90;;;;;;5043695;28;20040;-68
2022/03/17 06:47:57;;;;;;;43.00;29.98;;;7.60;99.90;;;;;;5048205;28;20068;-68
2022/03/17 06:50:25;;;;;;;47.42;30.25;;;7.70;99.90;;;;;;5057691;28;20086;-69
2022/03/17 06:52:52;;;;;;;44.25;29.70;;;7.70;99.90;;;;;;5056254;28;20041;-68
2022/03/17 06:55:20;;;;;;;45.08;30.70;;;7.80;99.90;;;;;;5056678;28;20045;-67
2022/03/17 06:57:47;;;;;;;42.80;29.27;;;7.80;99.90;;;;;;5049222;28;20183;-67
2022/03/17 07:00:17;;;;;;;43.30;28.70;;;7.90;99.90;;;;;;5035520;28;20488;-68
2022/03/17 07:02:46;;;;;;;40.88;28.80;;;8.00;99.90;;;;;;5048980;28;20478;-68
2022/03/17 07:05:14;;;;;;;47.17;31.08;;;8.10;99.90;;;;;;5049938;28;20060;-68
2022/03/17 07:07:43;;;;;;;44.80;30.02;;;8.10;99.90;;;;;;5049217;28;20041;-68
2022/03/17 07:10:12;;;;;;;45.42;29.58;;;8.10;99.90;;;;;;5049467;28;20060;-68
2022/03/17 07:12:41;;;;;;;44.78;31.17;;;8.20;99.90;;;;;;5048086;28;20041;-68
2022/03/17 07:15:10;;;;;;;43.88;29.33;;;8.20;99.90;;;;;;5047952;28;20049;-67
2022/03/17 07:17:42;;;;;;;46.58;30.58;;;8.30;99.90;;;;;;5036881;28;20044;-69
2022/03/17 07:20:19;;;;;;;41.97;29.15;;;8.40;99.90;;;;;;5050620;28;20080;-68
2022/03/17 07:22:49;;;;;;;39.92;28.67;;;8.50;99.90;;;;;;5046938;28;20408;-67
2022/03/17 07:25:21;;;;;;;46.97;32.63;;;8.60;99.90;;;;;;5049477;28;20037;-67
2022/03/17 07:27:48;;;;;;;43.75;29.88;;;8.60;99.90;;;;;;5059129;28;20060;-68
2022/03/17 07:30:18;;;;;;;46.50;31.35;;;8.70;99.90;;;;;;5058606;28;20059;-68
2022/03/17 07:32:55;;;;;;;46.03;31.33;;;8.80;99.90;;;;;;5062321;28;20113;-68
2022/03/17 07:35:23;;;;;;;46.70;31.15;;;8.90;99.90;;;;;;5058794;28;20086;-69
2022/03/17 07:37:50;;;;;;;40.90;30.33;;;9.00;99.90;;;;;;5059571;28;20052;-68
2022/03/17 07:40:17;;;;;;;42.80;29.42;;;9.00;99.90;;;;;;5056061;28;20125;-68
2022/03/17 07:42:45;;;;;;;42.83;29.63;;;9.20;99.90;;;;;;5056371;28;20083;-68
2022/03/17 07:45:15;;;;;;;43.85;30.80;;;9.30;99.90;;;;;;5052868;28;20052;-68
2022/03/17 07:48:01;;;;;;;45.65;30.80;;;9.40;99.90;;;;;;5059461;28;20049;-68
2022/03/17 07:50:28;;;;;;;43.22;28.95;;;9.50;99.90;;;;;;5058932;28;20521;-69
2022/03/17 07:52:56;;;;;;;39.38;29.48;;;9.60;99.90;;;;;;5053885;28;20427;-68
2022/03/17 07:55:24;;;;;;;43.53;30.23;;;9.70;99.90;;;;;;5054932;28;20626;-68
2022/03/17 07:57:52;;;;;;;49.40;32.28;;;9.80;99.90;;;;;;5058979;28;20045;-68
2022/03/17 08:00:19;;;;;;;55.78;31.67;;;9.70;99.90;;;;;;5064440;28;20044;-69
2022/03/17 08:02:46;;;;;;;42.85;30.75;;;9.80;99.90;;;;;;5055694;28;20041;-68
2022/03/17 08:05:14;;;;;;;42.75;29.85;;;9.80;99.90;;;;;;5053513;28;20078;-68
2022/03/17 08:07:42;;;;;;;42.15;29.33;;;9.90;99.90;;;;;;5053534;28;20044;-68
2022/03/17 08:10:10;;;;;;;41.35;29.63;;;10.00;99.90;;;;;;5053373;28;20399;-68
2022/03/17 08:12:41;;;;;;;38.40;28.67;;;10.00;99.90;;;;;;5052566;28;20474;-68
2022/03/17 08:15:09;;;;;;;39.15;28.20;;;10.00;99.90;;;;;;5051880;28;20037;-68
2022/03/17 08:17:37;;;;;;;40.35;29.38;;;10.00;99.90;;;;;;5053144;28;20419;-68
2022/03/17 08:20:05;;;;;;;40.13;28.55;;;10.10;99.90;;;;;;5051019;28;20130;-68
2022/03/17 08:22:34;;;;;;;42.70;29.00;;;10.10;99.90;;;;;;5052535;28;20037;-68
2022/03/17 08:25:39;;;;;;;54.78;33.88;;;10.20;99.90;;;;;;5052165;28;20484;-68
2022/03/17 08:28:08;;;;;;;38.35;28.00;;;10.20;99.90;;;;;;5040783;28;20049;-68
2022/03/17 08:30:37;;;;;;;46.92;31.73;;;10.30;99.90;;;;;;5059534;28;20040;-68
2022/03/17 08:33:04;;;;;;;43.85;30.38;;;10.40;99.90;;;;;;5052612;28;20041;-68
2022/03/17 08:35:31;;;;;;;40.45;29.77;;;10.50;99.90;;;;;;5053215;28;20053;-68
2022/03/17 08:37:59;;;;;;;46.15;31.20;;;10.50;99.90;;;;;;5051258;28;20457;-68
2022/03/17 08:40:26;;;;;;;43.15;30.73;;;10.60;99.90;;;;;;5054196;28;20055;-68
2022/03/17 08:42:53;;;;;;;41.05;28.98;;;10.60;99.90;;;;;;5052112;28;20037;-68
2022/03/17 08:50:54;;;;;;;44.88;29.00;;;10.80;99.90;;;;;;5049022;28;20041;-68
2022/03/17 08:53:21;;;;;;;39.22;27.35;;;10.90;99.90;;;;;;5051603;28;20045;-69
2022/03/17 08:55:49;;;;;;;40.97;29.73;;;11.00;99.90;;;;;;5052206;28;20673;-68
2022/03/17 08:58:16;;;;;;;41.50;29.63;;;11.00;99.90;;;;;;5037304;28;20060;-69
2022/03/17 09:00:44;;;;;;;38.38;29.05;;;11.10;99.90;;;;;;5050864;28;20049;-69
2022/03/17 09:03:11;;;;;;;34.85;26.52;;;11.30;99.90;;;;;;5051115;28;20538;-68
2022/03/17 09:05:39;;;;;;;41.72;30.27;;;11.50;99.90;;;;;;5044469;28;20041;-68
2022/03/17 09:08:06;;;;;;;45.10;29.95;;;11.60;99.90;;;;;;5049037;28;20036;-69
2022/03/17 09:10:35;;;;;;;46.60;31.13;;;11.70;99.90;;;;;;5056643;28;20040;-68
2022/03/17 09:13:07;;;;;;;40.50;29.98;;;11.70;99.90;;;;;;5054272;28;20394;-68
2022/03/17 09:15:40;;;;;;;41.03;30.27;;;11.80;99.90;;;;;;5060736;28;20060;-67
2022/03/17 09:18:10;;;;;;;44.15;29.52;;;11.80;99.90;;;;;;5060382;28;20709;-67
2022/03/17 09:20:38;;;;;;;42.05;29.77;;;11.90;99.90;;;;;;5051023;28;20041;-68
2022/03/17 09:23:06;;;;;;;43.42;29.35;;;12.00;99.90;;;;;;5057960;28;20411;-68
2022/03/17 09:25:34;;;;;;;41.47;28.27;;;12.10;99.90;;;;;;5052262;28;20257;-68
2022/03/17 09:28:03;;;;;;;40.03;28.55;;;12.20;99.90;;;;;;5052280;28;20377;-68
2022/03/17 09:30:31;;;;;;;40.72;30.05;;;12.40;99.90;;;;;;5051698;28;20071;-69
2022/03/17 09:32:59;;;;;;;45.38;30.63;;;12.40;99.90;;;;;;5055605;28;20051;-68
2022/03/17 09:35:27;;;;;;;46.13;31.23;;;12.50;99.90;;;;;;5049449;28;20041;-69
2022/03/17 09:37:54;;;;;;;43.10;29.27;;;12.60;99.90;;;;;;5057777;28;20041;-68
2022/03/17 09:40:22;;;;;;;42.25;30.48;;;12.70;99.90;;;;;;5062544;28;20070;-68
2022/03/17 09:43:18;;;;;;;41.97;30.30;;;12.60;99.90;;;;;;5057117;28;20477;-69
2022/03/17 09:45:42;;;;;;;38.78;27.33;;;12.50;99.90;;;;;;5039448;28;20051;-68
2022/03/17 09:48:11;;;;;;;40.33;28.80;;;12.50;99.90;;;;;;5049129;28;20044;-69
2022/03/17 09:50:40;;;;;;;40.60;29.40;;;12.60;99.90;;;;;;5049685;28;20044;-68
2022/03/17 09:53:08;;;;;;;42.53;30.33;;;12.60;99.90;;;;;;5051686;28;20044;-68
2022/03/17 09:55:36;;;;;;;33.65;26.30;;;12.60;99.90;;;;;;5049286;28;20040;-68
2022/03/17 09:58:06;;;;;;;39.28;28.88;;;12.60;99.90;;;;;;5064057;28;20419;-68
2022/03/17 10:00:49;;;;;;;41.72;27.98;;;12.70;99.90;;;;;;5045723;28;20055;-69
2022/03/17 10:03:35;;;;;;;41.35;29.17;;;12.70;99.90;;;;;;5057380;28;20392;-69
2022/03/17 10:06:06;;;;;;;39.55;28.50;;;12.80;99.90;;;;;;5046764;28;20079;-69
2022/03/17 10:08:37;;;;;;;38.95;29.13;;;12.80;99.90;;;;;;5057049;28;20470;-69
2022/03/17 10:11:06;;;;;;;43.67;30.10;;;12.80;99.90;;;;;;5050176;28;20525;-69
2022/03/17 10:13:44;;;;;;;39.00;27.40;;;12.80;99.90;;;;;;5061983;28;20040;-68
2022/03/17 10:16:18;;;;;;;35.72;25.90;;;12.80;99.90;;;;;;5068231;28;20430;-69
2022/03/17 10:18:54;;;;;;;39.28;26.92;;;12.80;99.90;;;;;;5065019;28;20064;-69
2022/03/17 10:21:24;;;;;;;39.85;26.95;;;12.90;99.90;;;;;;5060537;28;20439;-69
2022/03/17 10:23:56;;;;;;;40.33;27.80;;;13.00;99.90;;;;;;5063906;28;20059;-69
2022/03/17 10:26:37;;;;;;;40.13;26.58;;;12.90;99.90;;;;;;5068342;28;20415;-69
2022/03/17 10:29:14;;;;;;;39.90;26.25;;;12.90;99.90;;;;;;5034538;28;20095;-68
2022/03/17 10:32:03;;;;;;;39.22;26.95;;;12.90;99.90;;;;;;5065308;28;20041;-69
2022/03/17 10:34:51;;;;;;;39.92;28.65;;;12.90;99.90;;;;;;5049869;28;20056;-68
2022/03/17 10:37:21;;;;;;;35.20;25.85;;;12.80;99.90;;;;;;5045166;28;20539;-69
2022/03/17 10:39:54;;;;;;;40.75;26.08;;;12.80;99.90;;;;;;5058039;28;20052;-69
2022/03/17 10:42:26;;;;;;;37.55;26.75;;;12.80;99.90;;;;;;5045560;28;20053;-68
2022/03/17 10:44:56;;;;;;;35.40;25.15;;;12.80;99.90;;;;;;5041319;28;20515;-68
2022/03/17 10:47:28;;;;;;;35.45;25.35;;;12.80;99.90;;;;;;5048008;28;20049;-68
2022/03/17 10:50:14;;;;;;;34.53;25.02;;;12.90;99.90;;;;;;5063253;28;20049;-68
2022/03/17 10:52:44;;;;;;;39.63;26.33;;;12.90;99.90;;;;;;5055827;28;20052;-69
2022/03/17 10:55:12;;;;;;;35.33;24.27;;;12.90;99.90;;;;;;5062392;28;20135;-69
2022/03/17 10:57:39;;;;;;;32.42;24.90;;;13.00;99.90;;;;;;5051428;28;20412;-69
2022/03/17 11:00:21;;;;;;;32.95;23.27;;;13.10;99.90;;;;;;5049721;28;20041;-69
2022/03/17 11:02:50;;;;;;;29.88;22.10;;;13.00;99.90;;;;;;5052654;28;20080;-68
2022/03/17 11:05:18;;;;;;;35.03;22.45;;;13.10;99.90;;;;;;5056257;28;20053;-67
2022/03/17 11:07:46;;;;;;;32.08;24.27;;;13.10;99.90;;;;;;5051041;28;20063;-68
2022/03/17 11:10:21;;;;;;;32.17;23.23;;;13.10;99.90;;;;;;5046635;28;20406;-67
2022/03/17 11:12:51;;;;;;;33.95;22.67;;;13.00;99.90;;;;;;5046816;28;20061;-68
2022/03/17 11:15:30;;;;;;;32.10;22.33;;;13.10;99.90;;;;;;5052814;28;20065;-68
2022/03/17 11:18:02;;;;;;;31.15;20.77;;;13.10;99.90;;;;;;5056552;28;20045;-68
2022/03/17 11:20:30;;;;;;;32.47;22.17;;;13.20;99.90;;;;;;5056836;28;20407;-68
2022/03/17 11:23:22;;;;;;;32.25;22.38;;;13.20;99.90;;;;;;5051211;28;20045;-68
2022/03/17 11:25:59;;;;;;;33.17;22.53;;;13.30;99.90;;;;;;5052493;28;20059;-68
2022/03/17 11:28:32;;;;;;;33.75;22.08;;;13.40;99.90;;;;;;5055959;28;20765;-67
2022/03/17 11:31:03;;;;;;;27.42;20.95;;;13.40;99.90;;;;;;5056917;28;20503;-67
2022/03/17 11:33:31;;;;;;;31.20;22.60;;;13.40;99.90;;;;;;5064856;28;20044;-67
2022/03/17 11:36:01;;;;;;;31.85;22.80;;;13.50;99.90;;;;;;5064521;28;20045;-67
2022/03/17 11:38:32;;;;;;;32.47;22.58;;;13.50;99.90;;;;;;5069271;28;20398;-67
2022/03/17 11:41:16;;;;;;;31.08;21.35;;;13.50;99.90;;;;;;5056733;28;20033;-67
2022/03/17 11:43:47;;;;;;;27.70;20.45;;;13.50;99.90;;;;;;5044322;28;20461;-67
2022/03/17 11:46:22;;;;;;;29.55;21.08;;;13.50;99.90;;;;;;5050426;28;20056;-68
2022/03/17 11:48:51;;;;;;;30.25;22.50;;;13.60;99.90;;;;;;5030310;28;20455;-68
2022/03/17 11:51:20;;;;;;;29.75;22.27;;;13.60;99.90;;;;;;5051249;28;20094;-68
2022/03/17 11:53:53;;;;;;;27.90;20.70;;;13.50;99.90;;;;;;5059723;28;20037;-68
2022/03/17 11:56:43;;;;;;;26.85;19.65;;;13.40;99.90;;;;;;5048878;28;20071;-68
2022/03/17 11:59:16;;;;;;;29.88;20.83;;;13.40;99.90;;;;;;5031237;28;20052;-68
2022/03/17 12:01:49;;;;;;;25.65;19.55;;;13.50;99.90;;;;;;5052009;28;20049;-68
2022/03/17 12:04:31;;;;;;;31.05;20.50;;;13.50;99.90;;;;;;5051567;28;20500;-68
2022/03/17 12:07:13;;;;;;;28.05;20.15;;;13.50;99.90;;;;;;5049320;28;20041;-67
2022/03/17 12:09:41;;;;;;;28.55;20.40;;;13.40;99.90;;;;;;5052431;28;20358;-68
2022/03/17 12:12:17;;;;;;;27.17;18.95;;;13.40;99.90;;;;;;5052307;28;20036;-68
2022/03/17 12:15:03;;;;;;;27.65;18.90;;;13.40;99.90;;;;;;5058793;28;20127;-68
2022/03/17 12:17:30;;;;;;;28.55;18.45;;;13.40;99.90;;;;;;5059966;28;20131;-68
2022/03/17 12:20:14;;;;;;;28.98;19.30;;;13.40;99.90;;;;;;5051159;28;20109;-68
2022/03/17 12:22:44;;;;;;;32.58;20.35;;;13.40;99.90;;;;;;5048761;28;20045;-68
2022/03/17 12:25:13;;;;;;;32.53;19.77;;;13.30;99.90;;;;;;5049843;28;20563;-68
2022/03/17 12:27:42;;;;;;;24.67;19.02;;;13.30;99.90;;;;;;5046619;28;20064;-66
2022/03/17 12:30:15;;;;;;;27.48;18.65;;;13.30;99.90;;;;;;5049567;28;20037;-66
2022/03/17 12:32:47;;;;;;;24.83;17.50;;;13.30;99.90;;;;;;5062486;28;20380;-66
2022/03/17 12:35:15;;;;;;;25.10;19.15;;;13.30;99.90;;;;;;5065704;28;20514;-66
2022/03/17 12:37:44;;;;;;;31.83;20.00;;;13.30;99.90;;;;;;5051301;28;20060;-66
2022/03/17 12:40:15;;;;;;;29.45;19.38;;;13.30;99.90;;;;;;5058007;28;20048;-66
2022/03/17 12:42:50;;;;;;;25.83;18.60;;;13.30;99.90;;;;;;5065118;28;20075;-66
2022/03/17 12:45:21;;;;;;;25.42;18.80;;;13.30;99.90;;;;;;5065014;28;20135;-67
2022/03/17 12:47:56;;;;;;;27.40;19.02;;;13.30;99.90;;;;;;5062417;28;20582;-66
2022/03/17 12:50:28;;;;;;;30.77;19.13;;;13.30;99.90;;;;;;5058349;28;20041;-65
2022/03/17 12:52:56;;;;;;;34.63;19.80;;;13.30;99.90;;;;;;5062541;28;20523;-65
2022/03/17 12:55:24;;;;;;;28.73;19.25;;;13.20;99.90;;;;;;5047253;28;20029;-66
2022/03/17 12:57:52;;;;;;;28.52;17.98;;;13.30;99.90;;;;;;5062775;28;20452;-65
2022/03/17 13:00:20;;;;;;;25.85;17.88;;;13.30;99.90;;;;;;5017339;28;20113;-66
2022/03/17 13:02:55;;;;;;;27.20;19.20;;;13.40;99.90;;;;;;5040923;28;20048;-66